Aviation Digital Data Service (ADDS)

Output produced by METARs form (1827 UTC 16 August 2018)
found at http://www.aviationweather.gov/adds/metars/
 
HRYR 161600Z 17003KT 9999 FEW025 25/05 Q1019 NOSIG
HRYR 161700Z 1618/1724 00000KT CAVOK 
     BECMG 1702/1705 VRB03KT FM 170900 16008KT FEW025 FM 171600 00000KT CAVOK